Aidablu — IBWX — position and weather

sailwx.info

Track history (hours):
 
Tides and Currents Weather Stations Pressure Air Temp Water Temp Dewpoint Dewpoint Depression Visibility Wind Speed Wind Dir Waves Ship Positions

Aidablu

Last reported at 2016-May-04 20:33 UTC. Time now 2016-May-04 21:14 UTC.
Position N 39°32' E 002°39'.

Length 252 m; draft 7.3 m.

Type: Ship. MMSI: 247282500.

Date/timePositionNaut miles runAvg speedWind from/ knotsBaromVisibWave heightAir tempDewpointWater temp
2016-May-04 20:33N 39°32' E 002°39'1 1.4
2016-May-04 19:31N 39°33' E 002°38'0 0.0
2016-May-04 18:31N 39°33' E 002°38'0 0.0
2016-May-04 17:34N 39°33' E 002°38'0 0.0
2016-May-04 16:33N 39°33' E 002°38'0 0.0
2016-May-04 15:33N 39°33' E 002°38'0 0.0
2016-May-04 14:32N 39°33' E 002°38'0 0.0
2016-May-04 13:32N 39°33' E 002°38'0 0.0
2016-May-04 12:31N 39°33' E 002°38'0 0.0
2016-May-04 11:33N 39°33' E 002°38'0 0.0
2016-May-04 10:30N 39°33' E 002°38'0 0.0
2016-May-04 09:33N 39°33' E 002°38'0 0.0
2016-May-04 08:33N 39°33' E 002°38'0 0.0
2016-May-04 07:32N 39°33' E 002°38'0 0.0
2016-May-04 06:32N 39°33' E 002°38'0 0.0
2016-May-04 05:31N 39°33' E 002°38'0 0.0
2016-May-04 04:16N 39°33' E 002°38'0 0.0
2016-May-04 03:34N 39°33' E 002°38'0 0.0
2016-May-04 02:33N 39°33' E 002°38'3 2.8
2016-May-04 01:33N 39°30' E 002°37'1110.8
2016-May-04 00:33N 39°28' E 002°23'2512.8
2016-May-03 22:33N 39°53' E 002°13'1414.0
2016-May-03 21:33N 40°07' E 002°13'1414.2
2016-May-03 20:33N 40°21' E 002°12'1414.1
2016-May-03 19:33N 40°35' E 002°12'1414.2
2016-May-03 18:33N 40°49' E 002°12'1514.7
2016-May-03 17:33N 41°04' E 002°11'1713.5
2016-May-03 16:19N 41°21' E 002°10'3 0.3
2016-May-03 04:24N 41°17' E 002°11'12 6.5
2016-May-03 02:33N 41°23' E 002°26'8 7.3
2016-May-03 01:29N 41°26' E 002°35'328 6.4
2016-Apr-30 22:15N 43°14' E 009°34'6 8.3
2016-Apr-30 21:32N 43°14' E 009°42'7 7.6
2016-Apr-30 20:33N 43°17' E 009°52'8 7.8
2016-Apr-30 19:33N 43°21' E 010°01'8 7.9
2016-Apr-30 18:33N 43°27' E 010°08'7 6.9
2016-Apr-30 17:33N 43°32' E 010°15'2 2.3
2016-Apr-30 16:33N 43°33' E 010°18'0 0.0
2016-Apr-30 15:33N 43°33' E 010°18'0 0.0
2016-Apr-30 14:29N 43°33' E 010°18'0 0.0
2016-Apr-30 13:20N 43°33' E 010°18'0 0.0
2016-Apr-30 12:22N 43°33' E 010°18'0 0.0
2016-Apr-30 11:28N 43°33' E 010°18'0 0.0
2016-Apr-30 10:31N 43°33' E 010°18'0 0.0
2016-Apr-30 09:27N 43°33' E 010°18'0 0.0
2016-Apr-30 08:33N 43°33' E 010°18'0 0.0
2016-Apr-30 07:32N 43°33' E 010°18'0 0.0
2016-Apr-30 06:29N 43°33' E 010°18'0 0.0
2016-Apr-30 05:31N 43°33' E 010°18'4 4.3
2016-Apr-30 04:34N 43°30' E 010°14'7 7.1
2016-Apr-30 03:33N 43°23' E 010°11'1313.4
2016-Apr-30 02:34N 43°10' E 010°08'1514.4
2016-Apr-30 01:30N 42°55' E 010°03'1412.9
2016-Apr-30 00:27N 42°42' E 010°07'1314.6
2016-Apr-29 23:33N 42°33' E 010°20'1414.3
2016-Apr-29 22:33N 42°24' E 010°35'1414.1
2016-Apr-29 21:33N 42°15' E 010°50'1413.8
2016-Apr-29 20:33N 42°08' E 011°06'1414.0
2016-Apr-29 19:33N 42°07' E 011°25'106 4.8
2016-Apr-28 21:20N 40°58' E 013°13'1314.4
2016-Apr-28 20:25N 40°52' E 013°29'1315.0
2016-Apr-28 19:33N 40°44' E 013°42'1414.1
2016-Apr-28 18:33N 40°39' E 013°60'1414.3
2016-Apr-28 17:33N 40°47' E 014°14'3 0.2
2016-Apr-28 05:20N 40°50' E 014°16'5 6.1
2016-Apr-28 04:33N 40°45' E 014°17'1414.1
2016-Apr-28 03:33N 40°33' E 014°08'1514.8
2016-Apr-28 02:33N 40°19' E 014°04'8814.7
2016-Apr-27 20:33N 38°53' E 013°38'1515.1
2016-Apr-27 19:32N 38°38' E 013°34'1515.1
2016-Apr-27 18:33N 38°23' E 013°30'1514.7
2016-Apr-27 17:33N 38°09' E 013°26'3 3.1
2016-Apr-27 16:31N 38°08' E 013°22'0 0.0
2016-Apr-27 15:31N 38°08' E 013°22'0 0.0
2016-Apr-27 14:33N 38°08' E 013°22'0 0.0
2016-Apr-27 13:33N 38°08' E 013°22'0 0.0
2016-Apr-27 12:32N 38°08' E 013°22'0 0.0
2016-Apr-27 11:32N 38°08' E 013°22'0 0.0
2016-Apr-27 10:31N 38°08' E 013°22'0 0.0
2016-Apr-27 09:31N 38°08' E 013°22'0 0.0
2016-Apr-27 08:31N 38°08' E 013°22'0 0.0
2016-Apr-27 07:33N 38°08' E 013°22'4 3.9
2016-Apr-27 06:33N 38°11' E 013°24'1111.4
2016-Apr-27 05:33N 38°21' E 013°16'1514.7
2016-Apr-27 04:33N 38°30' E 013°02'448 9.0
2016-Apr-25 02:31N 39°13' E 003°29'7 7.7
2016-Apr-25 01:33N 39°13' E 003°19'8 7.8
2016-Apr-25 00:33N 39°13' E 003°09'8 8.0
2016-Apr-24 23:33N 39°15' E 002°59'8 8.3
2016-Apr-24 22:33N 39°18' E 002°49'8 7.9
2016-Apr-24 21:33N 39°24' E 002°42'  
Track history (hours):
 
Tides and Currents Weather Stations Pressure Air Temp Water Temp Dewpoint Dewpoint Depression Visibility Wind Speed Wind Dir Waves Ship Positions

Aidablu

Last reported at 2016-May-04 20:33 UTC. Time now 2016-May-04 21:14 UTC.
Position N 39°32' E 002°39'.

Length 252 m; draft 7.3 m.

Type: Ship. MMSI: 247282500.

Date/timePositionNaut miles runAvg speedWind from/ knotsBaromVisibWave heightAir tempDewpointWater temp
2016-May-04 20:33N 39°32' E 002°39'1 1.4
2016-May-04 19:31N 39°33' E 002°38'0 0.0
2016-May-04 18:31N 39°33' E 002°38'0 0.0
2016-May-04 17:34N 39°33' E 002°38'0 0.0
2016-May-04 16:33N 39°33' E 002°38'0 0.0
2016-May-04 15:33N 39°33' E 002°38'0 0.0
2016-May-04 14:32N 39°33' E 002°38'0 0.0
2016-May-04 13:32N 39°33' E 002°38'0 0.0
2016-May-04 12:31N 39°33' E 002°38'0 0.0
2016-May-04 11:33N 39°33' E 002°38'0 0.0
2016-May-04 10:30N 39°33' E 002°38'0 0.0
2016-May-04 09:33N 39°33' E 002°38'0 0.0
2016-May-04 08:33N 39°33' E 002°38'0 0.0
2016-May-04 07:32N 39°33' E 002°38'0 0.0
2016-May-04 06:32N 39°33' E 002°38'0 0.0
2016-May-04 05:31N 39°33' E 002°38'0 0.0
2016-May-04 04:16N 39°33' E 002°38'0 0.0
2016-May-04 03:34N 39°33' E 002°38'0 0.0
2016-May-04 02:33N 39°33' E 002°38'3 2.8
2016-May-04 01:33N 39°30' E 002°37'1110.8
2016-May-04 00:33N 39°28' E 002°23'2512.8
2016-May-03 22:33N 39°53' E 002°13'1414.0
2016-May-03 21:33N 40°07' E 002°13'1414.2
2016-May-03 20:33N 40°21' E 002°12'1414.1
2016-May-03 19:33N 40°35' E 002°12'1414.2
2016-May-03 18:33N 40°49' E 002°12'1514.7
2016-May-03 17:33N 41°04' E 002°11'1713.5
2016-May-03 16:19N 41°21' E 002°10'3 0.3
2016-May-03 04:24N 41°17' E 002°11'12 6.5
2016-May-03 02:33N 41°23' E 002°26'8 7.3
2016-May-03 01:29N 41°26' E 002°35'328 6.4
2016-Apr-30 22:15N 43°14' E 009°34'6 8.3
2016-Apr-30 21:32N 43°14' E 009°42'7 7.6
2016-Apr-30 20:33N 43°17' E 009°52'8 7.8
2016-Apr-30 19:33N 43°21' E 010°01'8 7.9
2016-Apr-30 18:33N 43°27' E 010°08'7 6.9
2016-Apr-30 17:33N 43°32' E 010°15'2 2.3
2016-Apr-30 16:33N 43°33' E 010°18'0 0.0
2016-Apr-30 15:33N 43°33' E 010°18'0 0.0
2016-Apr-30 14:29N 43°33' E 010°18'0 0.0
2016-Apr-30 13:20N 43°33' E 010°18'0 0.0
2016-Apr-30 12:22N 43°33' E 010°18'0 0.0
2016-Apr-30 11:28N 43°33' E 010°18'0 0.0
2016-Apr-30 10:31N 43°33' E 010°18'0 0.0
2016-Apr-30 09:27N 43°33' E 010°18'0 0.0
2016-Apr-30 08:33N 43°33' E 010°18'0 0.0
2016-Apr-30 07:32N 43°33' E 010°18'0 0.0
2016-Apr-30 06:29N 43°33' E 010°18'0 0.0
2016-Apr-30 05:31N 43°33' E 010°18'4 4.3
2016-Apr-30 04:34N 43°30' E 010°14'7 7.1
2016-Apr-30 03:33N 43°23' E 010°11'1313.4
2016-Apr-30 02:34N 43°10' E 010°08'1514.4
2016-Apr-30 01:30N 42°55' E 010°03'1412.9
2016-Apr-30 00:27N 42°42' E 010°07'1314.6
2016-Apr-29 23:33N 42°33' E 010°20'1414.3
2016-Apr-29 22:33N 42°24' E 010°35'1414.1
2016-Apr-29 21:33N 42°15' E 010°50'1413.8
2016-Apr-29 20:33N 42°08' E 011°06'1414.0
2016-Apr-29 19:33N 42°07' E 011°25'106 4.8
2016-Apr-28 21:20N 40°58' E 013°13'1314.4
2016-Apr-28 20:25N 40°52' E 013°29'1315.0
2016-Apr-28 19:33N 40°44' E 013°42'1414.1
2016-Apr-28 18:33N 40°39' E 013°60'1414.3
2016-Apr-28 17:33N 40°47' E 014°14'3 0.2
2016-Apr-28 05:20N 40°50' E 014°16'5 6.1
2016-Apr-28 04:33N 40°45' E 014°17'1414.1
2016-Apr-28 03:33N 40°33' E 014°08'1514.8
2016-Apr-28 02:33N 40°19' E 014°04'8814.7
2016-Apr-27 20:33N 38°53' E 013°38'1515.1
2016-Apr-27 19:32N 38°38' E 013°34'1515.1
2016-Apr-27 18:33N 38°23' E 013°30'1514.7
2016-Apr-27 17:33N 38°09' E 013°26'3 3.1
2016-Apr-27 16:31N 38°08' E 013°22'0 0.0
2016-Apr-27 15:31N 38°08' E 013°22'0 0.0
2016-Apr-27 14:33N 38°08' E 013°22'0 0.0
2016-Apr-27 13:33N 38°08' E 013°22'0 0.0
2016-Apr-27 12:32N 38°08' E 013°22'0 0.0
2016-Apr-27 11:32N 38°08' E 013°22'0 0.0
2016-Apr-27 10:31N 38°08' E 013°22'0 0.0
2016-Apr-27 09:31N 38°08' E 013°22'0 0.0
2016-Apr-27 08:31N 38°08' E 013°22'0 0.0
2016-Apr-27 07:33N 38°08' E 013°22'4 3.9
2016-Apr-27 06:33N 38°11' E 013°24'1111.4
2016-Apr-27 05:33N 38°21' E 013°16'1514.7
2016-Apr-27 04:33N 38°30' E 013°02'448 9.0
2016-Apr-25 02:31N 39°13' E 003°29'7 7.7
2016-Apr-25 01:33N 39°13' E 003°19'8 7.8
2016-Apr-25 00:33N 39°13' E 003°09'8 8.0
2016-Apr-24 23:33N 39°15' E 002°59'8 8.3
2016-Apr-24 22:33N 39°18' E 002°49'8 7.9
2016-Apr-24 21:33N 39°24' E 002°42'  

Dump ship's entire track history